Primos Secane, Pennsylvania
Current Conditions -  °F | °C
As of 9:54 PM on Saturday 25 Oct 2014 (Local Time) from KPHL Reporting Station
Few Clouds Few Clouds  
Wind Chill: 60°   Ceiling: Unl
Heat Index: 60°   Visibility: 10mi
Dew Point: 45°   Wind: 12mph
Humidity: 57%   Direction: 230°SW
Pressure: 29.68"   Gusts: NA
Location:  39.9228°N, 75.2984°W
Report Text: KPHL 260154Z 23010KT 10SM FEW065 16/07 A2968 RMK AO2 SLP049 T01560072
Loading
Personal Weather Stations






























Interactive Weather Map
Tropical Storm Tracking
New forecast layout! Learn more

10-Day Weather Forecast

Advertisements
Track Severe Weather on mobile